PDT,Max TemperatureF,Mean TemperatureF,Min TemperatureF,Max Dew PointF,MeanDew PointF,Min DewpointF,Max Humidity, Mean Humidity, Min Humidity, Max Sea Level PressureIn, Mean Sea Level PressureIn, Min Sea Level PressureIn, Max VisibilityMiles, Mean VisibilityMiles, Min VisibilityMiles, Max Wind SpeedMPH, Mean Wind SpeedMPH, Max Gust SpeedMPH,PrecipitationIn, CloudCover, Events, WindDirDegrees
2014-3-1,55,50,44,43,41,39,86,73,59,29.96,29.83,29.72,10,10,5,21,8,28,0.22,7,Rain,219
2014-3-2,56,48,39,46,43,38,93,80,66,30.16,30.10,29.99,10,10,10,17,8,21,0.00,4,,245
2014-3-3,63,51,38,47,42,37,92,69,46,30.18,30.12,30.06,10,10,10,16,4,20,0.00,0,,317
2014-3-4,67,57,47,44,42,39,74,57,40,30.09,30.04,30.00,10,10,10,26,11,33,0.00,0,,276
2014-3-5,73,56,39,44,40,36,86,57,28,30.15,30.08,30.02,10,10,10,16,4,20,0.00,0,,274
2014-3-6,70,60,50,50,45,37,71,58,45,30.08,30.03,29.98,10,9,2,37,19,44,0.00,0,,273
2014-3-7,69,56,42,39,32,22,76,47,17,30.12,30.06,30.00,10,10,10,29,10,35,0.00,0,,338
2014-3-8,71,53,34,35,29,22,89,53,16,30.26,30.21,30.13,10,10,10,22,7,29,0.00,0,,57
2014-3-9,74,57,40,37,30,18,79,46,12,30.31,30.22,30.13,10,10,10,15,5,21,0.00,0,,355
2014-3-10,73,57,40,43,34,24,73,45,17,30.13,30.07,30.03,10,10,10,30,15,36,0.00,0,,271
2014-3-11,69,55,40,44,29,20,76,46,16,30.13,30.08,30.02,10,10,10,24,10,30,0.00,0,,42
2014-3-12,65,49,33,24,20,17,64,40,16,30.21,30.11,30.03,10,10,10,28,9,37,0.00,0,,67
2014-3-13,70,51,33,28,22,13,72,37,11,30.05,30.01,29.94,10,10,10,15,6,23,0.00,0,,311
2014-3-14,76,62,48,25,18,6,35,21,7,30.15,30.07,30.02,10,10,8,24,12,28,0.00,0,,278
2014-3-15,76,58,40,36,29,23,62,38,14,30.34,30.26,30.14,10,10,10,20,6,23,0.00,0,,6
2014-3-16,81,59,37,36,29,16,76,43,9,30.38,30.26,30.12,10,10,10,21,5,25,0.00,0,,282
2014-3-17,70,61,52,39,28,21,55,36,16,30.09,29.94,29.80,10,6,1,41,26,47,0.00,1,,270
2014-3-18,67,53,38,38,21,7,76,43,9,30.04,29.95,29.87,10,10,10,23,10,28,0.00,0,,34
2014-3-19,70,50,30,29,15,5,58,33,8,30.18,30.10,30.05,10,10,8,16,4,24,0.00,0,,321
2014-3-20,75,55,35,41,29,18,70,42,13,30.09,30.01,29.90,10,10,4,18,6,25,0.00,0,,239
2014-3-21,72,60,48,44,38,31,66,45,23,29.94,29.91,29.88,10,9,5,28,13,36,0.00,0,,238
2014-3-22,75,62,48,46,37,27,68,44,19,30.06,29.98,29.91,10,10,10,22,12,46,0.00,0,,255
2014-3-23,76,57,38,33,28,18,64,39,14,30.13,30.07,30.01,10,10,10,17,6,22,0.00,0,,266
2014-3-24,81,62,42,34,26,12,62,35,8,30.13,30.06,29.98,10,10,10,17,5,23,0.00,0,,16
2014-3-25,79,59,39,46,37,23,71,42,12,30.00,29.90,29.82,10,10,2,32,12,39,0.00,0,,225
2014-3-26,58,52,45,44,41,36,86,67,47,29.95,29.88,29.81,10,10,10,26,17,31,T,3,,237
2014-3-27,61,53,45,37,34,30,76,54,32,30.09,30.02,29.94,10,10,10,31,18,37,0.00,1,,268
2014-3-28,74,60,46,35,31,21,61,39,17,30.17,30.11,30.06,10,10,10,25,10,30,0.00,0,,263
2014-3-29,77,60,42,40,33,25,62,41,19,30.13,30.03,29.92,10,10,10,29,11,37,0.00,0,,237
2014-3-30,61,53,44,45,34,28,77,54,31,30.08,30.01,29.92,10,10,10,30,19,36,T,1,,268
2014-3-31,64,52,40,38,31,20,71,48,25,30.03,29.95,29.87,10,10,10,31,17,39,T,2,,248